createdAt,value
2023-04-26T07:28:04.031Z,45.1
2023-04-26T07:33:59.609Z,42.7
2023-04-26T07:39:51.026Z,41.2
2023-04-26T07:45:43.335Z,40.3
2023-04-26T07:51:36.642Z,39.6
2023-04-26T07:57:29.830Z,39.2
2023-04-26T08:03:34.814Z,38.8
2023-04-26T08:09:29.775Z,38.4
2023-04-26T08:15:24.163Z,38.2
2023-04-26T08:21:16.722Z,37.9
2023-04-26T08:27:09.911Z,37.8
2023-04-26T08:33:01.711Z,37.5
2023-04-26T08:38:54.361Z,37.3
2023-04-26T08:44:49.684Z,45.1
2023-04-26T08:50:25.422Z,42.5
2023-04-26T08:56:18.034Z,46.6
2023-04-26T09:02:10.079Z,46
2023-04-26T09:08:04.009Z,45.7
2023-04-26T09:13:58.948Z,45.9
2023-04-26T09:19:37.015Z,45.9
2023-04-26T09:25:28.080Z,45.6
2023-04-26T09:31:21.338Z,45.7
2023-04-26T09:37:14.055Z,45.9
2023-04-26T09:43:02.183Z,45.9
2023-04-26T09:48:56.343Z,45.4
2023-04-26T09:54:49.350Z,46.1
2023-04-26T10:00:53.825Z,46.8
2023-04-26T10:06:48.077Z,47.4
2023-04-26T10:12:40.191Z,47.8
2023-04-26T10:18:15.765Z,48.3
2023-04-26T10:23:52.164Z,47.9
2023-04-26T10:29:51.176Z,48.3
2023-04-26T10:35:43.215Z,48
2023-04-26T10:41:35.411Z,48.8
2023-04-26T10:47:13.071Z,48.9
2023-04-26T10:53:05.141Z,49.3
2023-04-26T10:58:56.982Z,49.6
2023-04-26T11:05:23.571Z,49.8
2023-04-26T11:11:00.521Z,50
2023-04-26T11:16:24.243Z,50.8
2023-04-26T11:21:45.752Z,51.1
2023-04-26T11:27:20.913Z,50.9
2023-04-26T11:33:12.994Z,50.6
2023-04-26T11:39:06.168Z,50.3
2023-04-26T11:44:56.392Z,51.4
2023-04-26T11:50:48.945Z,51.1
2023-04-26T11:56:40.539Z,50.4
2023-04-26T12:02:32.018Z,50.3
2023-04-26T12:08:27.643Z,50.3
2023-04-26T12:14:20.235Z,50.1
2023-04-26T12:20:22.209Z,50.2
2023-04-26T12:26:02.139Z,50
2023-04-26T12:31:54.918Z,49.8
2023-04-26T12:38:01.802Z,49.4
2023-04-26T12:43:53.675Z,49
2023-04-26T12:49:46.717Z,49.1
2023-04-26T12:55:23.562Z,48.7
2023-04-26T13:01:01.335Z,48.3
2023-04-26T13:06:41.408Z,48.7
2023-04-26T13:12:01.209Z,49.3
2023-04-26T13:17:47.239Z,48.9
2023-04-26T13:23:23.736Z,48.3
2023-04-26T13:29:17.952Z,47.6
2023-04-26T13:35:13.938Z,46.2
2023-04-26T13:41:07.537Z,44.6
2023-04-26T13:46:58.889Z,43.2
2023-04-26T13:52:51.379Z,42.3
2023-04-26T13:58:42.996Z,40.5
2023-04-26T14:04:36.274Z,33.8
2023-04-26T14:10:28.990Z,31.1
2023-04-26T14:16:36.747Z,34.5
2023-04-26T14:22:28.797Z,31.3
2023-04-26T14:28:20.865Z,29.8
2023-04-26T14:34:14.546Z,28.9
2023-04-26T14:40:05.897Z,28.3
2023-04-26T14:46:15.905Z,27.7
2023-04-26T14:52:10.047Z,26.9
2023-04-26T14:58:01.443Z,26.5
2023-04-26T15:04:00.403Z,26.1
2023-04-26T15:09:49.614Z,25.9
2023-04-26T15:15:25.936Z,25.7
2023-04-26T15:21:18.421Z,25.5
2023-04-26T15:26:54.612Z,25.3
2023-04-26T15:32:31.518Z,25.3
2023-04-26T15:38:24.147Z,25.1
2023-04-26T15:44:17.554Z,25
2023-04-26T15:50:09.283Z,24.9
2023-04-26T15:55:47.179Z,24.8
2023-04-26T16:01:40.258Z,24.8
2023-04-26T16:07:34.703Z,24.6
2023-04-26T16:13:55.012Z,24.6
2023-04-26T16:19:48.084Z,24.5
2023-04-26T16:25:39.925Z,24.4
2023-04-26T16:31:34.082Z,24.3
2023-04-26T16:37:26.599Z,24.2
2023-04-26T16:43:18.244Z,24.1
2023-04-26T16:49:13.083Z,24.1
2023-04-26T16:55:05.207Z,24
2023-04-26T17:00:26.147Z,24
2023-04-26T17:05:52.558Z,23.9
2023-04-26T17:11:44.532Z,23.9
2023-04-26T17:17:36.288Z,23.9
2023-04-26T17:23:28.120Z,23.8
2023-04-26T17:29:20.380Z,23.8
2023-04-26T17:35:12.073Z,23.8
2023-04-26T17:41:03.637Z,23.8
2023-04-26T17:46:55.682Z,23.8
2023-04-26T17:52:46.843Z,23.7
2023-04-26T17:58:26.142Z,23.7
2023-04-26T18:04:21.524Z,23.7
2023-04-26T18:10:13.822Z,23.7
2023-04-26T18:16:07.750Z,23.6
2023-04-26T18:22:01.106Z,23.6
2023-04-26T18:27:52.339Z,23.6
2023-04-26T18:33:45.802Z,23.6
2023-04-26T18:39:37.868Z,23.6
2023-04-26T18:45:29.746Z,23.6
2023-04-26T18:51:22.336Z,23.6
2023-04-26T18:57:18.281Z,23.6
2023-04-26T19:03:11.867Z,23.6
2023-04-26T19:08:51.671Z,23.6
2023-04-26T19:14:58.553Z,23.6
2023-04-26T19:20:52.298Z,23.6
2023-04-26T19:26:45.569Z,23.6
2023-04-26T19:32:38.941Z,23.6
2023-04-26T19:38:30.855Z,23.6
2023-04-26T19:44:11.956Z,23.6
2023-04-26T19:50:06.553Z,23.6
2023-04-26T19:55:44.999Z,23.6
2023-04-26T20:01:23.124Z,23.6
2023-04-26T20:07:18.180Z,23.6
2023-04-26T20:13:11.259Z,23.6
2023-04-26T20:19:04.775Z,23.6
2023-04-26T20:24:58.833Z,23.6
2023-04-26T20:30:36.097Z,23.6
2023-04-26T20:36:30.708Z,23.6
2023-04-26T20:42:23.852Z,23.6
2023-04-26T20:48:16.145Z,23.6
2023-04-26T20:54:08.322Z,23.5
2023-04-26T21:00:00.373Z,23.6
2023-04-26T21:05:55.013Z,23.6
2023-04-26T21:11:46.691Z,23.5
2023-04-26T21:17:38.643Z,23.6
2023-04-26T21:23:29.441Z,23.6
2023-04-26T21:29:20.637Z,23.6
2023-04-26T21:35:13.390Z,23.6
2023-04-26T21:40:49.047Z,23.6
2023-04-26T21:46:45.466Z,23.6
2023-04-26T21:52:37.447Z,23.6
2023-04-26T21:58:29.213Z,23.6
2023-04-26T22:04:22.204Z,23.6
2023-04-26T22:10:14.520Z,23.6
2023-04-26T22:16:05.218Z,23.6
2023-04-26T22:21:56.539Z,23.6
2023-04-26T22:27:48.761Z,23.6
2023-04-26T22:33:52.421Z,23.6
2023-04-26T22:39:51.173Z,23.6
2023-04-26T22:45:43.281Z,23.6
2023-04-26T22:51:34.059Z,23.6
2023-04-26T22:57:34.016Z,23.6
2023-04-26T23:03:11.325Z,23.6
2023-04-26T23:09:02.461Z,23.6
2023-04-26T23:14:56.170Z,23.6
2023-04-26T23:20:32.885Z,23.6
2023-04-26T23:26:24.897Z,23.6
2023-04-26T23:32:16.226Z,23.6
2023-04-26T23:38:13.229Z,23.6
2023-04-26T23:44:04.019Z,23.7
2023-04-26T23:49:40.272Z,23.7
2023-04-26T23:55:32.150Z,23.7
